sensor_id;sensor_type;location;lat;lon;timestamp;P1;durP1;ratioP1;P2;durP2;ratioP2
56102;SDS011;41970;48.774;9.280;2023-01-31T00:01:03;5.68;;;3.65;;
56102;SDS011;41970;48.774;9.280;2023-01-31T00:03:34;7.10;;;3.30;;
56102;SDS011;41970;48.774;9.280;2023-01-31T00:08:43;5.10;;;3.28;;
56102;SDS011;41970;48.774;9.280;2023-01-31T00:11:09;9.48;;;3.67;;
56102;SDS011;41970;48.774;9.280;2023-01-31T00:13:35;7.83;;;3.20;;
56102;SDS011;41970;48.774;9.280;2023-01-31T00:16:01;5.90;;;3.77;;
56102;SDS011;41970;48.774;9.280;2023-01-31T00:18:28;3.10;;;2.40;;
56102;SDS011;41970;48.774;9.280;2023-01-31T00:20:54;6.60;;;3.65;;
56102;SDS011;41970;48.774;9.280;2023-01-31T00:23:21;11.40;;;4.20;;
56102;SDS011;41970;48.774;9.280;2023-01-31T00:25:47;6.65;;;3.50;;
56102;SDS011;41970;48.774;9.280;2023-01-31T00:28:12;6.20;;;3.77;;
56102;SDS011;41970;48.774;9.280;2023-01-31T00:30:38;6.47;;;4.10;;
56102;SDS011;41970;48.774;9.280;2023-01-31T00:33:04;6.50;;;3.13;;
56102;SDS011;41970;48.774;9.280;2023-01-31T00:35:29;4.60;;;3.57;;
56102;SDS011;41970;48.774;9.280;2023-01-31T00:37:55;5.80;;;3.60;;
56102;SDS011;41970;48.774;9.280;2023-01-31T00:40:21;6.50;;;3.70;;
56102;SDS011;41970;48.774;9.280;2023-01-31T00:42:46;6.30;;;3.50;;
56102;SDS011;41970;48.774;9.280;2023-01-31T00:45:12;9.53;;;3.50;;
56102;SDS011;41970;48.774;9.280;2023-01-31T00:47:38;3.30;;;3.00;;
56102;SDS011;41970;48.774;9.280;2023-01-31T00:50:04;5.17;;;3.50;;
56102;SDS011;41970;48.774;9.280;2023-01-31T00:52:30;13.60;;;4.35;;
56102;SDS011;41970;48.774;9.280;2023-01-31T00:54:56;5.85;;;3.40;;
56102;SDS011;41970;48.774;9.280;2023-01-31T00:57:22;4.27;;;3.80;;
56102;SDS011;41970;48.774;9.280;2023-01-31T00:59:47;4.90;;;3.00;;
56102;SDS011;41970;48.774;9.280;2023-01-31T01:02:13;5.53;;;3.20;;
56102;SDS011;41970;48.774;9.280;2023-01-31T01:04:39;4.00;;;3.20;;
56102;SDS011;41970;48.774;9.280;2023-01-31T01:07:04;3.83;;;2.43;;
56102;SDS011;41970;48.774;9.280;2023-01-31T01:09:30;8.03;;;3.53;;
56102;SDS011;41970;48.774;9.280;2023-01-31T01:11:56;5.32;;;2.55;;
56102;SDS011;41970;48.774;9.280;2023-01-31T01:14:22;4.20;;;3.37;;
56102;SDS011;41970;48.774;9.280;2023-01-31T01:16:47;4.37;;;2.90;;
56102;SDS011;41970;48.774;9.280;2023-01-31T01:19:15;5.23;;;2.80;;
56102;SDS011;41970;48.774;9.280;2023-01-31T01:21:42;3.67;;;3.25;;
56102;SDS011;41970;48.774;9.280;2023-01-31T01:24:12;4.60;;;3.30;;
56102;SDS011;41970;48.774;9.280;2023-01-31T01:26:40;7.22;;;3.55;;
56102;SDS011;41970;48.774;9.280;2023-01-31T01:29:06;5.60;;;3.38;;
56102;SDS011;41970;48.774;9.280;2023-01-31T01:31:32;6.80;;;2.90;;
56102;SDS011;41970;48.774;9.280;2023-01-31T01:34:02;3.43;;;2.83;;
56102;SDS011;41970;48.774;9.280;2023-01-31T01:36:31;5.68;;;3.45;;
56102;SDS011;41970;48.774;9.280;2023-01-31T01:38:58;4.38;;;2.78;;
56102;SDS011;41970;48.774;9.280;2023-01-31T01:41:24;4.53;;;3.37;;
56102;SDS011;41970;48.774;9.280;2023-01-31T01:43:55;5.63;;;3.40;;
56102;SDS011;41970;48.774;9.280;2023-01-31T01:46:26;6.30;;;3.78;;
56102;SDS011;41970;48.774;9.280;2023-01-31T01:51:44;5.50;;;2.72;;
56102;SDS011;41970;48.774;9.280;2023-01-31T01:54:14;12.02;;;3.33;;
56102;SDS011;41970;48.774;9.280;2023-01-31T01:56:46;6.88;;;2.85;;
56102;SDS011;41970;48.774;9.280;2023-01-31T01:59:16;8.65;;;3.17;;
56102;SDS011;41970;48.774;9.280;2023-01-31T02:01:42;7.20;;;3.65;;
56102;SDS011;41970;48.774;9.280;2023-01-31T02:04:12;4.53;;;3.47;;
56102;SDS011;41970;48.774;9.280;2023-01-31T02:06:43;6.20;;;2.80;;
56102;SDS011;41970;48.774;9.280;2023-01-31T02:09:12;6.30;;;3.63;;
56102;SDS011;41970;48.774;9.280;2023-01-31T02:11:53;5.18;;;3.00;;
56102;SDS011;41970;48.774;9.280;2023-01-31T02:14:19;5.40;;;2.77;;
56102;SDS011;41970;48.774;9.280;2023-01-31T02:16:45;5.95;;;3.65;;
56102;SDS011;41970;48.774;9.280;2023-01-31T02:19:15;7.47;;;3.27;;
56102;SDS011;41970;48.774;9.280;2023-01-31T02:22:09;8.00;;;3.50;;
56102;SDS011;41970;48.774;9.280;2023-01-31T02:27:39;4.95;;;3.45;;
56102;SDS011;41970;48.774;9.280;2023-01-31T02:36:23;5.32;;;3.33;;
56102;SDS011;41970;48.774;9.280;2023-01-31T02:44:54;6.32;;;3.33;;
56102;SDS011;41970;48.774;9.280;2023-01-31T02:58:10;7.50;;;3.25;;
56102;SDS011;41970;48.774;9.280;2023-01-31T03:00:40;3.40;;;2.95;;
56102;SDS011;41970;48.774;9.280;2023-01-31T03:03:11;3.83;;;3.35;;
56102;SDS011;41970;48.774;9.280;2023-01-31T03:11:27;6.45;;;3.80;;
56102;SDS011;41970;48.774;9.280;2023-01-31T03:14:25;5.38;;;3.90;;
56102;SDS011;41970;48.774;9.280;2023-01-31T03:22:41;10.00;;;3.70;;
56102;SDS011;41970;48.774;9.280;2023-01-31T03:25:15;8.27;;;5.10;;
56102;SDS011;41970;48.774;9.280;2023-01-31T03:27:46;3.60;;;3.30;;
56102;SDS011;41970;48.774;9.280;2023-01-31T03:30:17;10.18;;;3.40;;
56102;SDS011;41970;48.774;9.280;2023-01-31T03:32:54;9.90;;;3.85;;
56102;SDS011;41970;48.774;9.280;2023-01-31T03:35:24;4.38;;;3.75;;
56102;SDS011;41970;48.774;9.280;2023-01-31T03:38:03;7.97;;;3.80;;
56102;SDS011;41970;48.774;9.280;2023-01-31T03:40:30;7.63;;;3.60;;
56102;SDS011;41970;48.774;9.280;2023-01-31T03:46:04;11.10;;;4.70;;
56102;SDS011;41970;48.774;9.280;2023-01-31T03:48:35;7.07;;;4.20;;
56102;SDS011;41970;48.774;9.280;2023-01-31T03:51:05;6.93;;;4.50;;
56102;SDS011;41970;48.774;9.280;2023-01-31T03:53:36;7.13;;;4.90;;
56102;SDS011;41970;48.774;9.280;2023-01-31T03:56:15;4.72;;;3.53;;
56102;SDS011;41970;48.774;9.280;2023-01-31T03:58:43;4.82;;;3.25;;
56102;SDS011;41970;48.774;9.280;2023-01-31T04:01:14;5.25;;;4.13;;
56102;SDS011;41970;48.774;9.280;2023-01-31T04:03:51;5.88;;;3.83;;
56102;SDS011;41970;48.774;9.280;2023-01-31T04:06:37;4.03;;;3.30;;
56102;SDS011;41970;48.774;9.280;2023-01-31T04:09:03;7.38;;;4.13;;
56102;SDS011;41970;48.774;9.280;2023-01-31T04:11:29;5.33;;;3.63;;
56102;SDS011;41970;48.774;9.280;2023-01-31T04:14:02;6.90;;;4.25;;
56102;SDS011;41970;48.774;9.280;2023-01-31T04:16:27;5.03;;;4.50;;
56102;SDS011;41970;48.774;9.280;2023-01-31T04:18:53;14.87;;;4.27;;
56102;SDS011;41970;48.774;9.280;2023-01-31T04:21:20;5.07;;;4.57;;
56102;SDS011;41970;48.774;9.280;2023-01-31T04:23:46;8.98;;;5.93;;
56102;SDS011;41970;48.774;9.280;2023-01-31T04:26:12;7.80;;;4.23;;
56102;SDS011;41970;48.774;9.280;2023-01-31T04:28:38;6.23;;;4.97;;
56102;SDS011;41970;48.774;9.280;2023-01-31T04:31:04;8.55;;;4.32;;
56102;SDS011;41970;48.774;9.280;2023-01-31T04:33:30;6.70;;;4.33;;
56102;SDS011;41970;48.774;9.280;2023-01-31T04:35:55;9.90;;;4.60;;
56102;SDS011;41970;48.774;9.280;2023-01-31T04:38:21;7.90;;;3.93;;
56102;SDS011;41970;48.774;9.280;2023-01-31T04:40:47;5.27;;;3.73;;
56102;SDS011;41970;48.774;9.280;2023-01-31T04:43:13;6.83;;;4.17;;
56102;SDS011;41970;48.774;9.280;2023-01-31T04:45:38;9.50;;;4.13;;
56102;SDS011;41970;48.774;9.280;2023-01-31T04:48:05;11.73;;;4.18;;
56102;SDS011;41970;48.774;9.280;2023-01-31T04:50:31;7.60;;;4.67;;
56102;SDS011;41970;48.774;9.280;2023-01-31T04:52:57;5.93;;;3.83;;
56102;SDS011;41970;48.774;9.280;2023-01-31T04:55:22;5.97;;;4.20;;
56102;SDS011;41970;48.774;9.280;2023-01-31T04:57:48;6.37;;;4.27;;
56102;SDS011;41970;48.774;9.280;2023-01-31T05:00:14;4.53;;;3.43;;
56102;SDS011;41970;48.774;9.280;2023-01-31T05:02:40;6.45;;;4.25;;
56102;SDS011;41970;48.774;9.280;2023-01-31T05:05:06;8.43;;;3.53;;
56102;SDS011;41970;48.774;9.280;2023-01-31T05:07:32;5.40;;;3.75;;
56102;SDS011;41970;48.774;9.280;2023-01-31T05:09:58;7.07;;;3.63;;
56102;SDS011;41970;48.774;9.280;2023-01-31T05:12:24;6.50;;;3.70;;
56102;SDS011;41970;48.774;9.280;2023-01-31T05:14:50;4.95;;;3.45;;
56102;SDS011;41970;48.774;9.280;2023-01-31T05:17:16;7.53;;;4.20;;
56102;SDS011;41970;48.774;9.280;2023-01-31T05:19:43;8.45;;;3.60;;
56102;SDS011;41970;48.774;9.280;2023-01-31T05:22:09;7.73;;;4.40;;
56102;SDS011;41970;48.774;9.280;2023-01-31T05:24:35;8.23;;;3.90;;
56102;SDS011;41970;48.774;9.280;2023-01-31T05:27:01;5.83;;;3.90;;
56102;SDS011;41970;48.774;9.280;2023-01-31T05:29:27;7.53;;;4.82;;
56102;SDS011;41970;48.774;9.280;2023-01-31T05:31:55;7.75;;;4.38;;
56102;SDS011;41970;48.774;9.280;2023-01-31T05:34:23;5.30;;;3.88;;
56102;SDS011;41970;48.774;9.280;2023-01-31T05:36:52;6.43;;;3.95;;
56102;SDS011;41970;48.774;9.280;2023-01-31T05:39:18;8.98;;;5.35;;
56102;SDS011;41970;48.774;9.280;2023-01-31T05:41:44;6.93;;;3.87;;
56102;SDS011;41970;48.774;9.280;2023-01-31T05:44:10;8.77;;;4.60;;
56102;SDS011;41970;48.774;9.280;2023-01-31T05:46:36;7.10;;;4.83;;
56102;SDS011;41970;48.774;9.280;2023-01-31T05:49:03;8.57;;;4.72;;
56102;SDS011;41970;48.774;9.280;2023-01-31T05:51:29;10.65;;;5.30;;
56102;SDS011;41970;48.774;9.280;2023-01-31T05:53:55;7.20;;;5.43;;
56102;SDS011;41970;48.774;9.280;2023-01-31T05:56:21;8.00;;;4.57;;
56102;SDS011;41970;48.774;9.280;2023-01-31T05:58:46;4.40;;;3.38;;
56102;SDS011;41970;48.774;9.280;2023-01-31T06:01:15;8.35;;;5.28;;
56102;SDS011;41970;48.774;9.280;2023-01-31T06:03:44;9.35;;;5.25;;
56102;SDS011;41970;48.774;9.280;2023-01-31T06:06:11;9.35;;;5.40;;
56102;SDS011;41970;48.774;9.280;2023-01-31T06:08:37;9.90;;;6.07;;
56102;SDS011;41970;48.774;9.280;2023-01-31T06:11:04;7.30;;;4.80;;
56102;SDS011;41970;48.774;9.280;2023-01-31T06:13:30;8.73;;;5.00;;
56102;SDS011;41970;48.774;9.280;2023-01-31T06:15:57;6.85;;;4.45;;
56102;SDS011;41970;48.774;9.280;2023-01-31T06:18:23;7.73;;;5.10;;
56102;SDS011;41970;48.774;9.280;2023-01-31T06:20:50;6.50;;;4.80;;
56102;SDS011;41970;48.774;9.280;2023-01-31T06:23:16;7.20;;;4.47;;
56102;SDS011;41970;48.774;9.280;2023-01-31T06:25:43;8.15;;;4.45;;
56102;SDS011;41970;48.774;9.280;2023-01-31T06:28:08;7.73;;;4.67;;
56102;SDS011;41970;48.774;9.280;2023-01-31T06:30:34;7.77;;;4.53;;
56102;SDS011;41970;48.774;9.280;2023-01-31T06:33:01;5.57;;;4.25;;
56102;SDS011;41970;48.774;9.280;2023-01-31T06:35:26;12.02;;;5.15;;
56102;SDS011;41970;48.774;9.280;2023-01-31T06:37:53;10.50;;;5.37;;
56102;SDS011;41970;48.774;9.280;2023-01-31T06:40:19;8.25;;;5.28;;
56102;SDS011;41970;48.774;9.280;2023-01-31T06:42:45;8.00;;;6.27;;
56102;SDS011;41970;48.774;9.280;2023-01-31T06:45:11;12.20;;;6.00;;
56102;SDS011;41970;48.774;9.280;2023-01-31T06:47:37;8.93;;;5.70;;
56102;SDS011;41970;48.774;9.280;2023-01-31T06:50:02;9.77;;;5.17;;
56102;SDS011;41970;48.774;9.280;2023-01-31T06:52:28;7.75;;;5.13;;
56102;SDS011;41970;48.774;9.280;2023-01-31T06:54:54;8.90;;;5.53;;
56102;SDS011;41970;48.774;9.280;2023-01-31T06:57:20;6.80;;;6.10;;
56102;SDS011;41970;48.774;9.280;2023-01-31T06:59:45;12.83;;;6.13;;
56102;SDS011;41970;48.774;9.280;2023-01-31T07:02:11;9.27;;;4.40;;
56102;SDS011;41970;48.774;9.280;2023-01-31T07:04:37;11.00;;;5.53;;
56102;SDS011;41970;48.774;9.280;2023-01-31T07:07:03;8.87;;;6.70;;
56102;SDS011;41970;48.774;9.280;2023-01-31T07:09:29;10.30;;;6.10;;
56102;SDS011;41970;48.774;9.280;2023-01-31T07:11:54;8.03;;;4.63;;
56102;SDS011;41970;48.774;9.280;2023-01-31T07:14:20;7.47;;;5.13;;
56102;SDS011;41970;48.774;9.280;2023-01-31T07:16:46;6.50;;;4.97;;
56102;SDS011;41970;48.774;9.280;2023-01-31T07:19:11;9.13;;;4.90;;
56102;SDS011;41970;48.774;9.280;2023-01-31T07:21:37;6.20;;;5.27;;
56102;SDS011;41970;48.774;9.280;2023-01-31T07:24:03;9.70;;;4.47;;
56102;SDS011;41970;48.774;9.280;2023-01-31T07:26:29;7.20;;;5.72;;
56102;SDS011;41970;48.774;9.280;2023-01-31T07:28:55;11.60;;;5.03;;
56102;SDS011;41970;48.774;9.280;2023-01-31T07:31:20;14.33;;;5.70;;
56102;SDS011;41970;48.774;9.280;2023-01-31T07:33:46;8.50;;;5.80;;
56102;SDS011;41970;48.774;9.280;2023-01-31T07:36:14;12.40;;;5.87;;
56102;SDS011;41970;48.774;9.280;2023-01-31T07:38:43;10.63;;;4.95;;
56102;SDS011;41970;48.774;9.280;2023-01-31T07:41:09;6.80;;;5.10;;
56102;SDS011;41970;48.774;9.280;2023-01-31T07:43:36;7.75;;;5.32;;
56102;SDS011;41970;48.774;9.280;2023-01-31T07:46:04;7.18;;;4.88;;
56102;SDS011;41970;48.774;9.280;2023-01-31T07:48:33;8.82;;;4.82;;
56102;SDS011;41970;48.774;9.280;2023-01-31T07:50:59;10.00;;;5.30;;
56102;SDS011;41970;48.774;9.280;2023-01-31T07:53:30;13.07;;;5.15;;
56102;SDS011;41970;48.774;9.280;2023-01-31T07:56:30;11.07;;;6.00;;
56102;SDS011;41970;48.774;9.280;2023-01-31T07:58:49;7.80;;;5.20;;
56102;SDS011;41970;48.774;9.280;2023-01-31T08:01:19;16.60;;;5.90;;
56102;SDS011;41970;48.774;9.280;2023-01-31T08:04:05;6.20;;;5.35;;
56102;SDS011;41970;48.774;9.280;2023-01-31T08:06:32;9.57;;;5.18;;
56102;SDS011;41970;48.774;9.280;2023-01-31T08:08:59;12.98;;;5.93;;
56102;SDS011;41970;48.774;9.280;2023-01-31T08:11:25;8.02;;;4.68;;
56102;SDS011;41970;48.774;9.280;2023-01-31T08:13:51;6.43;;;4.72;;
56102;SDS011;41970;48.774;9.280;2023-01-31T08:16:17;10.23;;;5.32;;
56102;SDS011;41970;48.774;9.280;2023-01-31T08:18:44;6.30;;;5.00;;
56102;SDS011;41970;48.774;9.280;2023-01-31T08:21:10;8.40;;;4.93;;
56102;SDS011;41970;48.774;9.280;2023-01-31T08:23:37;7.57;;;5.40;;
56102;SDS011;41970;48.774;9.280;2023-01-31T08:26:19;12.80;;;6.60;;
56102;SDS011;41970;48.774;9.280;2023-01-31T08:28:47;7.53;;;5.07;;
56102;SDS011;41970;48.774;9.280;2023-01-31T08:31:18;8.43;;;4.23;;
56102;SDS011;41970;48.774;9.280;2023-01-31T08:33:46;13.07;;;5.27;;
56102;SDS011;41970;48.774;9.280;2023-01-31T08:36:16;8.47;;;5.17;;
56102;SDS011;41970;48.774;9.280;2023-01-31T08:38:43;6.60;;;3.93;;
56102;SDS011;41970;48.774;9.280;2023-01-31T08:41:10;5.20;;;3.80;;
56102;SDS011;41970;48.774;9.280;2023-01-31T08:43:36;6.67;;;3.50;;
56102;SDS011;41970;48.774;9.280;2023-01-31T08:46:02;5.40;;;4.10;;
56102;SDS011;41970;48.774;9.280;2023-01-31T08:48:31;4.23;;;3.73;;
56102;SDS011;41970;48.774;9.280;2023-01-31T08:51:01;5.50;;;3.90;;
56102;SDS011;41970;48.774;9.280;2023-01-31T08:53:31;13.03;;;4.03;;
56102;SDS011;41970;48.774;9.280;2023-01-31T08:56:00;10.90;;;4.10;;
56102;SDS011;41970;48.774;9.280;2023-01-31T08:58:29;6.80;;;4.23;;
56102;SDS011;41970;48.774;9.280;2023-01-31T09:00:59;5.80;;;4.37;;
56102;SDS011;41970;48.774;9.280;2023-01-31T09:03:26;8.57;;;4.80;;
56102;SDS011;41970;48.774;9.280;2023-01-31T09:06:02;7.23;;;4.80;;
56102;SDS011;41970;48.774;9.280;2023-01-31T09:08:30;7.97;;;4.43;;
56102;SDS011;41970;48.774;9.280;2023-01-31T09:10:56;7.00;;;3.87;;
56102;SDS011;41970;48.774;9.280;2023-01-31T09:13:24;8.30;;;4.67;;
56102;SDS011;41970;48.774;9.280;2023-01-31T09:16:24;7.27;;;4.77;;
56102;SDS011;41970;48.774;9.280;2023-01-31T09:18:43;9.13;;;4.17;;
56102;SDS011;41970;48.774;9.280;2023-01-31T09:21:10;16.80;;;5.93;;
56102;SDS011;41970;48.774;9.280;2023-01-31T09:23:40;8.60;;;4.80;;
56102;SDS011;41970;48.774;9.280;2023-01-31T09:26:06;6.90;;;3.57;;
56102;SDS011;41970;48.774;9.280;2023-01-31T09:28:32;7.53;;;4.60;;
56102;SDS011;41970;48.774;9.280;2023-01-31T09:31:06;6.90;;;4.67;;
56102;SDS011;41970;48.774;9.280;2023-01-31T09:33:33;12.83;;;6.30;;
56102;SDS011;41970;48.774;9.280;2023-01-31T09:36:01;13.03;;;5.87;;
56102;SDS011;41970;48.774;9.280;2023-01-31T09:38:33;7.30;;;4.17;;
56102;SDS011;41970;48.774;9.280;2023-01-31T09:41:01;8.00;;;4.13;;
56102;SDS011;41970;48.774;9.280;2023-01-31T09:43:31;6.03;;;4.27;;
56102;SDS011;41970;48.774;9.280;2023-01-31T09:46:01;10.53;;;4.63;;
56102;SDS011;41970;48.774;9.280;2023-01-31T09:48:31;9.33;;;4.80;;
56102;SDS011;41970;48.774;9.280;2023-01-31T09:51:01;9.50;;;3.90;;
56102;SDS011;41970;48.774;9.280;2023-01-31T09:53:31;6.77;;;3.73;;
56102;SDS011;41970;48.774;9.280;2023-01-31T10:01:23;7.27;;;4.67;;
56102;SDS011;41970;48.774;9.280;2023-01-31T10:07:05;9.70;;;3.83;;
56102;SDS011;41970;48.774;9.280;2023-01-31T10:09:47;7.73;;;3.83;;
56102;SDS011;41970;48.774;9.280;2023-01-31T10:12:29;7.83;;;3.63;;
56102;SDS011;41970;48.774;9.280;2023-01-31T10:15:04;9.80;;;4.33;;
56102;SDS011;41970;48.774;9.280;2023-01-31T10:17:38;7.50;;;5.60;;
56102;SDS011;41970;48.774;9.280;2023-01-31T10:20:39;9.17;;;4.30;;
56102;SDS011;41970;48.774;9.280;2023-01-31T10:23:27;5.90;;;3.33;;
56102;SDS011;41970;48.774;9.280;2023-01-31T10:26:01;5.43;;;4.70;;
56102;SDS011;41970;48.774;9.280;2023-01-31T10:28:37;6.97;;;3.73;;
56102;SDS011;41970;48.774;9.280;2023-01-31T10:31:12;14.10;;;5.03;;
56102;SDS011;41970;48.774;9.280;2023-01-31T10:34:08;7.23;;;4.20;;
56102;SDS011;41970;48.774;9.280;2023-01-31T10:39:33;12.17;;;4.03;;
56102;SDS011;41970;48.774;9.280;2023-01-31T10:42:21;5.83;;;3.40;;
56102;SDS011;41970;48.774;9.280;2023-01-31T10:47:36;6.17;;;3.93;;
56102;SDS011;41970;48.774;9.280;2023-01-31T10:50:12;6.30;;;3.40;;
56102;SDS011;41970;48.774;9.280;2023-01-31T10:57:48;5.00;;;3.60;;
56102;SDS011;41970;48.774;9.280;2023-01-31T11:00:36;4.90;;;4.40;;
56102;SDS011;41970;48.774;9.280;2023-01-31T11:03:01;6.30;;;3.40;;
56102;SDS011;41970;48.774;9.280;2023-01-31T11:05:28;8.37;;;3.33;;
56102;SDS011;41970;48.774;9.280;2023-01-31T11:07:55;5.17;;;3.63;;
56102;SDS011;41970;48.774;9.280;2023-01-31T11:10:29;10.80;;;4.60;;
56102;SDS011;41970;48.774;9.280;2023-01-31T11:12:57;9.33;;;3.93;;
56102;SDS011;41970;48.774;9.280;2023-01-31T11:15:34;11.07;;;3.17;;
56102;SDS011;41970;48.774;9.280;2023-01-31T11:18:08;3.97;;;2.60;;
56102;SDS011;41970;48.774;9.280;2023-01-31T11:20:45;4.60;;;3.10;;
56102;SDS011;41970;48.774;9.280;2023-01-31T11:23:16;4.50;;;2.60;;
56102;SDS011;41970;48.774;9.280;2023-01-31T11:26:02;6.60;;;3.43;;
56102;SDS011;41970;48.774;9.280;2023-01-31T11:28:38;6.63;;;3.43;;
56102;SDS011;41970;48.774;9.280;2023-01-31T11:31:16;6.00;;;3.13;;
56102;SDS011;41970;48.774;9.280;2023-01-31T11:33:55;10.00;;;3.63;;
56102;SDS011;41970;48.774;9.280;2023-01-31T11:36:30;10.90;;;3.57;;
56102;SDS011;41970;48.774;9.280;2023-01-31T11:38:58;6.20;;;3.17;;
56102;SDS011;41970;48.774;9.280;2023-01-31T11:41:28;8.43;;;2.80;;
56102;SDS011;41970;48.774;9.280;2023-01-31T11:44:10;4.23;;;2.60;;
56102;SDS011;41970;48.774;9.280;2023-01-31T11:46:39;8.07;;;2.60;;
56102;SDS011;41970;48.774;9.280;2023-01-31T11:49:42;4.87;;;4.47;;
56102;SDS011;41970;48.774;9.280;2023-01-31T11:52:17;8.60;;;2.97;;
56102;SDS011;41970;48.774;9.280;2023-01-31T11:55:04;4.47;;;2.60;;
56102;SDS011;41970;48.774;9.280;2023-01-31T11:57:33;6.43;;;3.23;;
56102;SDS011;41970;48.774;9.280;2023-01-31T12:00:01;4.30;;;3.03;;
56102;SDS011;41970;48.774;9.280;2023-01-31T12:05:11;3.93;;;2.70;;
56102;SDS011;41970;48.774;9.280;2023-01-31T12:07:45;3.93;;;2.73;;
56102;SDS011;41970;48.774;9.280;2023-01-31T12:10:29;5.63;;;3.63;;
56102;SDS011;41970;48.774;9.280;2023-01-31T12:13:13;14.50;;;3.30;;
56102;SDS011;41970;48.774;9.280;2023-01-31T12:15:45;4.60;;;2.27;;
56102;SDS011;41970;48.774;9.280;2023-01-31T12:18:22;8.63;;;3.73;;
56102;SDS011;41970;48.774;9.280;2023-01-31T12:21:09;6.20;;;2.60;;
56102;SDS011;41970;48.774;9.280;2023-01-31T12:23:49;7.63;;;2.70;;
56102;SDS011;41970;48.774;9.280;2023-01-31T12:26:33;5.67;;;2.73;;
56102;SDS011;41970;48.774;9.280;2023-01-31T12:46:16;8.40;;;2.93;;
56102;SDS011;41970;48.774;9.280;2023-01-31T12:59:59;3.03;;;2.37;;
56102;SDS011;41970;48.774;9.280;2023-01-31T13:02:59;3.27;;;2.50;;
56102;SDS011;41970;48.774;9.280;2023-01-31T13:08:18;5.90;;;2.57;;
56102;SDS011;41970;48.774;9.280;2023-01-31T13:14:01;6.07;;;2.70;;
56102;SDS011;41970;48.774;9.280;2023-01-31T13:16:30;4.07;;;2.83;;
56102;SDS011;41970;48.774;9.280;2023-01-31T13:19:01;5.67;;;2.90;;
56102;SDS011;41970;48.774;9.280;2023-01-31T13:21:31;7.70;;;2.43;;
56102;SDS011;41970;48.774;9.280;2023-01-31T13:24:02;7.53;;;3.17;;
56102;SDS011;41970;48.774;9.280;2023-01-31T13:26:30;7.53;;;3.77;;
56102;SDS011;41970;48.774;9.280;2023-01-31T13:29:03;8.83;;;2.40;;
56102;SDS011;41970;48.774;9.280;2023-01-31T13:31:45;3.20;;;2.83;;
56102;SDS011;41970;48.774;9.280;2023-01-31T13:37:01;3.83;;;2.10;;
56102;SDS011;41970;48.774;9.280;2023-01-31T13:39:32;3.17;;;2.50;;
56102;SDS011;41970;48.774;9.280;2023-01-31T13:42:03;5.33;;;3.00;;
56102;SDS011;41970;48.774;9.280;2023-01-31T13:44:29;6.00;;;3.77;;
56102;SDS011;41970;48.774;9.280;2023-01-31T13:46:56;6.63;;;2.20;;
56102;SDS011;41970;48.774;9.280;2023-01-31T13:49:36;3.90;;;2.87;;
56102;SDS011;41970;48.774;9.280;2023-01-31T13:52:28;5.30;;;2.70;;
56102;SDS011;41970;48.774;9.280;2023-01-31T13:55:20;8.13;;;2.57;;
56102;SDS011;41970;48.774;9.280;2023-01-31T13:57:51;3.90;;;2.63;;
56102;SDS011;41970;48.774;9.280;2023-01-31T14:00:35;6.80;;;3.10;;
56102;SDS011;41970;48.774;9.280;2023-01-31T14:03:13;10.53;;;2.90;;
56102;SDS011;41970;48.774;9.280;2023-01-31T14:11:01;3.70;;;2.90;;
56102;SDS011;41970;48.774;9.280;2023-01-31T14:13:49;12.23;;;3.70;;
56102;SDS011;41970;48.774;9.280;2023-01-31T14:16:39;3.97;;;2.37;;
56102;SDS011;41970;48.774;9.280;2023-01-31T14:32:41;8.70;;;3.30;;
56102;SDS011;41970;48.774;9.280;2023-01-31T14:40:29;4.33;;;3.20;;
56102;SDS011;41970;48.774;9.280;2023-01-31T14:56:59;9.03;;;3.30;;
56102;SDS011;41970;48.774;9.280;2023-01-31T14:59:51;6.40;;;2.63;;
56102;SDS011;41970;48.774;9.280;2023-01-31T15:02:22;3.83;;;2.60;;
56102;SDS011;41970;48.774;9.280;2023-01-31T15:04:59;3.17;;;2.83;;
56102;SDS011;41970;48.774;9.280;2023-01-31T15:07:30;7.00;;;3.73;;
56102;SDS011;41970;48.774;9.280;2023-01-31T15:09:57;13.60;;;5.87;;
56102;SDS011;41970;48.774;9.280;2023-01-31T15:15:36;10.20;;;4.77;;
56102;SDS011;41970;48.774;9.280;2023-01-31T15:18:04;4.37;;;3.30;;
56102;SDS011;41970;48.774;9.280;2023-01-31T15:20:42;5.23;;;3.80;;
56102;SDS011;41970;48.774;9.280;2023-01-31T15:23:21;6.43;;;3.43;;
56102;SDS011;41970;48.774;9.280;2023-01-31T15:25:49;4.63;;;3.10;;
56102;SDS011;41970;48.774;9.280;2023-01-31T15:28:36;12.23;;;4.00;;
56102;SDS011;41970;48.774;9.280;2023-01-31T15:31:06;4.67;;;3.13;;
56102;SDS011;41970;48.774;9.280;2023-01-31T15:33:44;6.30;;;3.17;;
56102;SDS011;41970;48.774;9.280;2023-01-31T15:36:16;4.73;;;3.20;;
56102;SDS011;41970;48.774;9.280;2023-01-31T15:38:50;7.53;;;4.17;;
56102;SDS011;41970;48.774;9.280;2023-01-31T15:46:47;5.23;;;3.50;;
56102;SDS011;41970;48.774;9.280;2023-01-31T15:49:22;5.00;;;3.17;;
56102;SDS011;41970;48.774;9.280;2023-01-31T15:54:50;9.97;;;3.30;;
56102;SDS011;41970;48.774;9.280;2023-01-31T15:57:17;6.60;;;3.63;;
56102;SDS011;41970;48.774;9.280;2023-01-31T15:59:45;6.13;;;3.77;;
56102;SDS011;41970;48.774;9.280;2023-01-31T16:02:18;4.30;;;2.90;;
56102;SDS011;41970;48.774;9.280;2023-01-31T16:04:57;5.67;;;3.30;;
56102;SDS011;41970;48.774;9.280;2023-01-31T16:07:23;4.83;;;3.77;;
56102;SDS011;41970;48.774;9.280;2023-01-31T16:09:55;6.40;;;3.30;;
56102;SDS011;41970;48.774;9.280;2023-01-31T16:12:22;4.30;;;3.20;;
56102;SDS011;41970;48.774;9.280;2023-01-31T16:14:50;4.60;;;3.80;;
56102;SDS011;41970;48.774;9.280;2023-01-31T16:17:19;7.50;;;3.27;;
56102;SDS011;41970;48.774;9.280;2023-01-31T16:19:47;5.23;;;3.70;;
56102;SDS011;41970;48.774;9.280;2023-01-31T16:22:21;5.93;;;3.03;;
56102;SDS011;41970;48.774;9.280;2023-01-31T16:24:51;4.50;;;3.83;;
56102;SDS011;41970;48.774;9.280;2023-01-31T16:27:18;7.40;;;4.23;;
56102;SDS011;41970;48.774;9.280;2023-01-31T16:29:45;4.93;;;3.40;;
56102;SDS011;41970;48.774;9.280;2023-01-31T16:34:55;11.03;;;3.47;;
56102;SDS011;41970;48.774;9.280;2023-01-31T16:42:46;6.70;;;3.00;;
56102;SDS011;41970;48.774;9.280;2023-01-31T16:45:31;4.30;;;3.47;;
56102;SDS011;41970;48.774;9.280;2023-01-31T16:56:40;8.87;;;3.20;;
56102;SDS011;41970;48.774;9.280;2023-01-31T16:59:37;6.37;;;3.37;;
56102;SDS011;41970;48.774;9.280;2023-01-31T17:04:59;5.70;;;3.67;;
56102;SDS011;41970;48.774;9.280;2023-01-31T17:07:34;7.77;;;4.80;;
56102;SDS011;41970;48.774;9.280;2023-01-31T17:10:02;9.47;;;4.83;;
56102;SDS011;41970;48.774;9.280;2023-01-31T17:12:33;3.80;;;2.90;;
56102;SDS011;41970;48.774;9.280;2023-01-31T17:15:11;3.37;;;3.07;;
56102;SDS011;41970;48.774;9.280;2023-01-31T17:17:42;7.07;;;3.27;;
56102;SDS011;41970;48.774;9.280;2023-01-31T17:20:08;4.70;;;3.00;;
56102;SDS011;41970;48.774;9.280;2023-01-31T17:22:37;5.13;;;3.23;;
56102;SDS011;41970;48.774;9.280;2023-01-31T17:25:09;11.53;;;5.40;;
56102;SDS011;41970;48.774;9.280;2023-01-31T17:27:42;4.77;;;4.23;;
56102;SDS011;41970;48.774;9.280;2023-01-31T17:30:08;7.60;;;3.70;;
56102;SDS011;41970;48.774;9.280;2023-01-31T17:32:34;3.30;;;3.00;;
56102;SDS011;41970;48.774;9.280;2023-01-31T17:35:00;7.13;;;3.50;;
56102;SDS011;41970;48.774;9.280;2023-01-31T17:37:26;4.93;;;3.07;;
56102;SDS011;41970;48.774;9.280;2023-01-31T17:39:51;6.70;;;3.40;;
56102;SDS011;41970;48.774;9.280;2023-01-31T17:42:18;7.47;;;4.63;;
56102;SDS011;41970;48.774;9.280;2023-01-31T17:44:45;4.87;;;4.17;;
56102;SDS011;41970;48.774;9.280;2023-01-31T17:47:11;6.00;;;4.90;;
56102;SDS011;41970;48.774;9.280;2023-01-31T17:49:37;6.97;;;4.23;;
56102;SDS011;41970;48.774;9.280;2023-01-31T17:52:03;5.90;;;4.40;;
56102;SDS011;41970;48.774;9.280;2023-01-31T17:54:29;6.27;;;3.83;;
56102;SDS011;41970;48.774;9.280;2023-01-31T17:56:54;4.93;;;3.57;;
56102;SDS011;41970;48.774;9.280;2023-01-31T17:59:20;5.90;;;4.87;;